»·PEaware :: N8467R KSNA-KBNG

N8467R :: KSNA-KBNG

FLIGHT INFORMATION

Flight Status: Arrived
Operator: Privately registered:
United States
More flights under this callsign
Pilot: Dayel O. (25681)
Aircraft: PIPER PA-28 CHEROKEE ARCHER
(P28A)
More flights by this aircraft type
Origin: KSNA John Wayne-Orange Co
United States
Destination: KBNG Banning Mun
United States
More flights between these airports :: More routes between these airports
Route: +KSNA KBNG
File this flight plan on PilotEdge
Remarks:
Altitude:
(Current/Filed)
5,500ft
Speed:
(Current/Filed)
105kts
Departed: 24-Mar-20 08:40 PM
Arrived: 24-Mar-20 09:26 PM
Distance/Time
Traveled:
53nm/0:46
Distance/Time
To Go:
Arrived

Flight Plot

Page will automatically refresh every two minutes.

Flight plan parsing failed; only flown route is shown


Map Options




Map Legend


Flown Route
Filed Route
Departure Airport
Arrival Airport
Navaid (VOR, NDB)
Fix

Horizontal Profiles

Position Reports

Time Latitude Longitude Heading Altitude Ground
Speed
24-Mar-20 20:13 33.666883 -117.872003 308 57ft 0kts
24-Mar-20 20:14 33.666883 -117.872003 308 57ft 0kts
24-Mar-20 20:15 33.666883 -117.872003 308 57ft 0kts
24-Mar-20 20:16 33.666883 -117.872003 308 57ft 0kts
24-Mar-20 20:17 33.666883 -117.872003 308 57ft 0kts
24-Mar-20 20:18 33.666883 -117.872003 308 57ft 0kts
24-Mar-20 20:19 33.666883 -117.872003 308 57ft 0kts
24-Mar-20 20:20 33.666883 -117.872003 308 57ft 0kts
24-Mar-20 20:21 33.666883 -117.872003 308 57ft 0kts
24-Mar-20 20:22 33.666883 -117.872003 308 57ft 0kts
24-Mar-20 20:23 33.666883 -117.872003 308 57ft 0kts
24-Mar-20 20:24 33.666883 -117.872003 308 57ft 0kts
24-Mar-20 20:25 33.666883 -117.872003 308 57ft 0kts
24-Mar-20 20:26 33.666883 -117.872003 308 57ft 0kts
24-Mar-20 20:27 33.666883 -117.872003 308 57ft 0kts
24-Mar-20 20:29 33.666883 -117.872003 308 57ft 0kts
24-Mar-20 20:30 33.667097 -117.872229 328 57ft 4kts
24-Mar-20 20:31 33.669238 -117.870807 40 57ft 14kts
24-Mar-20 20:32 33.672257 -117.868039 27 57ft 10kts
24-Mar-20 20:33 33.673923 -117.867199 24 57ft 2kts
24-Mar-20 20:34 33.676200 -117.865757 28 57ft 10kts
24-Mar-20 20:35 33.679658 -117.863571 26 57ft 10kts
24-Mar-20 20:36 33.679952 -117.863624 312 57ft 0kts
24-Mar-20 20:37 33.679952 -117.863624 312 57ft 0kts
24-Mar-20 20:38 33.679952 -117.863624 312 57ft 0kts
24-Mar-20 20:39 33.680149 -117.864126 260 57ft 10kts
24-Mar-20 20:40 33.664654 -117.874453 211 720ft 75kts
24-Mar-20 20:41 33.645984 -117.879503 153 1718ft 79kts
24-Mar-20 20:42 33.637589 -117.854370 89 2533ft 96kts
24-Mar-20 20:43 33.638504 -117.821404 89 2896ft 95kts
24-Mar-20 20:44 33.637458 -117.790144 96 3252ft 86kts
24-Mar-20 20:45 33.633467 -117.761579 104 3577ft 88kts
24-Mar-20 20:46 33.632258 -117.730753 93 3728ft 95kts
24-Mar-20 20:47 33.630532 -117.698810 92 4271ft 91kts
24-Mar-20 20:47 33.630322 -117.674811 88 4969ft 82kts
24-Mar-20 20:49 33.630841 -117.641827 91 5606ft 87kts
24-Mar-20 20:50 33.630489 -117.611188 90 5827ft 94kts
24-Mar-20 20:50 33.630153 -117.584263 93 5900ft 98kts
24-Mar-20 20:51 33.629519 -117.550902 92 6169ft 102kts
24-Mar-20 20:53 33.630000 -117.510357 87 6086ft 108kts
24-Mar-20 20:53 33.629855 -117.479585 90 5906ft 110kts
24-Mar-20 20:54 33.636681 -117.444768 54 5728ft 107kts
24-Mar-20 20:55 33.652569 -117.414502 40 5651ft 104kts
24-Mar-20 20:56 33.674790 -117.393617 18 5639ft 98kts
24-Mar-20 20:57 33.698720 -117.377452 19 5629ft 98kts
24-Mar-20 20:58 33.721097 -117.362686 16 5619ft 97kts
24-Mar-20 20:59 33.742629 -117.341281 37 5601ft 102kts
24-Mar-20 21:00 33.761992 -117.315821 39 5596ft 104kts
24-Mar-20 21:01 33.780859 -117.289045 40 5633ft 104kts
24-Mar-20 21:02 33.799391 -117.261710 44 5668ft 106kts
24-Mar-20 21:03 33.817513 -117.233835 44 5698ft 107kts
24-Mar-20 21:04 33.834134 -117.203652 54 5708ft 109kts
24-Mar-20 21:05 33.846163 -117.169295 69 5699ft 113kts
24-Mar-20 21:06 33.853347 -117.132392 71 5703ft 113kts
24-Mar-20 21:07 33.860955 -117.095805 68 5701ft 112kts
24-Mar-20 21:08 33.869591 -117.059733 68 5694ft 112kts
24-Mar-20 21:09 33.877157 -117.023160 69 5673ft 113kts
24-Mar-20 21:10 33.885284 -116.986789 58 5656ft 110kts
24-Mar-20 21:11 33.899130 -116.957560 45 5295ft 92kts
24-Mar-20 21:12 33.913054 -116.930978 49 4810ft 94kts
24-Mar-20 21:13 33.921966 -116.900546 75 3914ft 100kts
24-Mar-20 21:14 33.921089 -116.869438 80 3038ft 83kts
24-Mar-20 21:15 33.919763 -116.838300 75 3308ft 87kts
24-Mar-20 21:16 33.935067 -116.829069 332 3478ft 64kts
24-Mar-20 21:17 33.938560 -116.850148 277 3486ft 70kts
24-Mar-20 21:18 33.936281 -116.871636 244 3425ft 64kts
24-Mar-20 21:19 33.922438 -116.863167 79 2632ft 85kts
24-Mar-20 21:20 33.918284 -116.830897 92 3003ft 105kts
24-Mar-20 21:21 33.912588 -116.796572 93 3127ft 99kts
24-Mar-20 21:22 33.920566 -116.797736 281 2952ft 68kts
24-Mar-20 21:23 33.921840 -116.820391 278 2685ft 64kts
24-Mar-20 21:24 33.922367 -116.838671 278 2336ft 53kts
24-Mar-20 21:25 33.922458 -116.852860 196 2220ft 7kts
24-Mar-20 21:26 33.922035 -116.853679 269 2220ft 6kts
24-Mar-20 21:27 33.922042 -116.856870 269 2220ft 9kts
24-Mar-20 21:28 33.921602 -116.857395 257 2220ft 2kts
24-Mar-20 21:29 33.921422 -116.857456 92 2220ft 0kts
24-Mar-20 21:30 33.921422 -116.857456 91 2220ft 0kts

Navigation Log

Ident Type
Flight plan parsing failed, navigation log unavailable